sensor_id;sensor_type;location;lat;lon;timestamp;P1;P2;P0
30713;PMS7003;17465;47.934;33.430;2022-10-16T00:01:49;101.25;94.50;75.00
30713;PMS7003;17465;47.934;33.430;2022-10-16T00:04:19;113.00;105.75;83.50
30713;PMS7003;17465;47.934;33.430;2022-10-16T00:06:49;111.75;105.00;82.75
30713;PMS7003;17465;47.934;33.430;2022-10-16T00:09:20;116.75;105.50;83.75
30713;PMS7003;17465;47.934;33.430;2022-10-16T00:11:50;99.00;90.25;68.50
30713;PMS7003;17465;47.934;33.430;2022-10-16T00:14:22;93.00;80.25;59.25
30713;PMS7003;17465;47.934;33.430;2022-10-16T00:16:52;90.75;74.25;55.00
30713;PMS7003;17465;47.934;33.430;2022-10-16T00:19:22;94.25;80.50;60.00
30713;PMS7003;17465;47.934;33.430;2022-10-16T00:21:53;89.00;74.75;54.75
30713;PMS7003;17465;47.934;33.430;2022-10-16T00:24:23;87.75;70.75;48.75
30713;PMS7003;17465;47.934;33.430;2022-10-16T00:26:53;86.50;71.50;47.50
30713;PMS7003;17465;47.934;33.430;2022-10-16T00:29:24;78.75;63.00;43.00
30713;PMS7003;17465;47.934;33.430;2022-10-16T00:31:55;85.75;68.75;43.75
30713;PMS7003;17465;47.934;33.430;2022-10-16T00:34:26;86.25;70.50;48.50
30713;PMS7003;17465;47.934;33.430;2022-10-16T00:36:57;87.00;72.50;54.75
30713;PMS7003;17465;47.934;33.430;2022-10-16T00:39:27;94.00;83.75;60.00
30713;PMS7003;17465;47.934;33.430;2022-10-16T00:41:58;102.00;95.00;71.25
30713;PMS7003;17465;47.934;33.430;2022-10-16T00:44:48;91.50;78.25;55.50
30713;PMS7003;17465;47.934;33.430;2022-10-16T00:50:09;83.00;68.25;47.00
30713;PMS7003;17465;47.934;33.430;2022-10-16T00:52:44;81.75;65.00;43.00
30713;PMS7003;17465;47.934;33.430;2022-10-16T00:55:16;90.00;75.00;50.25
30713;PMS7003;17465;47.934;33.430;2022-10-16T00:57:47;86.50;69.00;47.50
30713;PMS7003;17465;47.934;33.430;2022-10-16T01:00:20;91.50;76.50;46.50
30713;PMS7003;17465;47.934;33.430;2022-10-16T01:02:52;82.50;65.00;41.75
30713;PMS7003;17465;47.934;33.430;2022-10-16T01:05:30;70.25;56.00;37.50
30713;PMS7003;17465;47.934;33.430;2022-10-16T01:08:17;75.50;60.25;39.50
30713;PMS7003;17465;47.934;33.430;2022-10-16T01:10:52;75.00;59.25;37.50
30713;PMS7003;17465;47.934;33.430;2022-10-16T01:13:40;67.25;56.00;36.50
30713;PMS7003;17465;47.934;33.430;2022-10-16T01:16:16;66.50;53.75;32.50
30713;PMS7003;17465;47.934;33.430;2022-10-16T01:21:59;60.75;50.50;30.00
30713;PMS7003;17465;47.934;33.430;2022-10-16T01:29:54;46.50;40.25;24.25
30713;PMS7003;17465;47.934;33.430;2022-10-16T01:32:36;56.75;45.25;25.25
30713;PMS7003;17465;47.934;33.430;2022-10-16T01:35:18;45.00;41.25;27.50
30713;PMS7003;17465;47.934;33.430;2022-10-16T01:38:03;51.50;45.25;27.00
30713;PMS7003;17465;47.934;33.430;2022-10-16T01:40:41;54.75;44.50;28.25
30713;PMS7003;17465;47.934;33.430;2022-10-16T01:43:33;62.00;49.00;29.00
30713;PMS7003;17465;47.934;33.430;2022-10-16T01:46:22;45.00;40.75;23.25
30713;PMS7003;17465;47.934;33.430;2022-10-16T01:48:55;55.50;45.50;27.75
30713;PMS7003;17465;47.934;33.430;2022-10-16T01:51:27;44.50;41.75;26.00
30713;PMS7003;17465;47.934;33.430;2022-10-16T01:54:00;50.50;42.50;26.50
30713;PMS7003;17465;47.934;33.430;2022-10-16T01:56:31;55.75;45.25;26.75
30713;PMS7003;17465;47.934;33.430;2022-10-16T01:59:11;50.50;44.50;28.00
30713;PMS7003;17465;47.934;33.430;2022-10-16T02:01:45;56.25;45.00;27.75
30713;PMS7003;17465;47.934;33.430;2022-10-16T02:07:43;52.25;44.75;28.00
30713;PMS7003;17465;47.934;33.430;2022-10-16T02:10:47;57.75;48.75;29.75
30713;PMS7003;17465;47.934;33.430;2022-10-16T02:14:06;47.50;41.25;25.75
30713;PMS7003;17465;47.934;33.430;2022-10-16T02:17:09;58.50;47.25;28.25
30713;PMS7003;17465;47.934;33.430;2022-10-16T02:19:47;61.00;50.00;29.25
30713;PMS7003;17465;47.934;33.430;2022-10-16T02:22:38;60.50;49.75;28.25
30713;PMS7003;17465;47.934;33.430;2022-10-16T02:25:30;60.50;46.00;28.00
30713;PMS7003;17465;47.934;33.430;2022-10-16T02:30:44;36.50;31.25;4.00
30713;PMS7003;17465;47.934;33.430;2022-10-16T02:33:16;68.00;51.00;31.75
30713;PMS7003;17465;47.934;33.430;2022-10-16T02:35:49;58.25;48.75;28.00
30713;PMS7003;17465;47.934;33.430;2022-10-16T02:38:21;63.50;52.00;30.25
30713;PMS7003;17465;47.934;33.430;2022-10-16T02:40:54;63.50;53.75;31.25
30713;PMS7003;17465;47.934;33.430;2022-10-16T02:43:28;62.75;52.75;31.25
30713;PMS7003;17465;47.934;33.430;2022-10-16T02:45:58;66.50;54.25;32.50
30713;PMS7003;17465;47.934;33.430;2022-10-16T02:48:30;65.25;55.00;31.00
30713;PMS7003;17465;47.934;33.430;2022-10-16T02:51:00;69.25;54.00;33.25
30713;PMS7003;17465;47.934;33.430;2022-10-16T02:53:31;60.25;50.00;31.00
30713;PMS7003;17465;47.934;33.430;2022-10-16T02:56:03;60.50;46.25;29.75
30713;PMS7003;17465;47.934;33.430;2022-10-16T02:58:33;49.25;42.25;27.25
30713;PMS7003;17465;47.934;33.430;2022-10-16T03:01:04;46.00;39.75;26.25
30713;PMS7003;17465;47.934;33.430;2022-10-16T03:03:35;44.00;40.25;25.50
30713;PMS7003;17465;47.934;33.430;2022-10-16T03:06:05;52.50;41.00;25.25
30713;PMS7003;17465;47.934;33.430;2022-10-16T03:08:36;49.50;41.00;26.00
30713;PMS7003;17465;47.934;33.430;2022-10-16T03:11:07;43.75;37.75;22.50
30713;PMS7003;17465;47.934;33.430;2022-10-16T03:13:38;61.50;47.25;26.25
30713;PMS7003;17465;47.934;33.430;2022-10-16T03:16:09;43.25;39.75;22.75
30713;PMS7003;17465;47.934;33.430;2022-10-16T03:18:40;52.00;41.25;24.75
30713;PMS7003;17465;47.934;33.430;2022-10-16T03:21:11;43.50;41.25;23.75
30713;PMS7003;17465;47.934;33.430;2022-10-16T03:23:41;41.75;39.00;24.00
30713;PMS7003;17465;47.934;33.430;2022-10-16T03:26:12;45.50;41.25;26.00
30713;PMS7003;17465;47.934;33.430;2022-10-16T03:28:44;39.75;36.00;19.75
30713;PMS7003;17465;47.934;33.430;2022-10-16T03:31:15;38.50;38.00;26.00
30713;PMS7003;17465;47.934;33.430;2022-10-16T03:33:45;40.75;39.25;23.75
30713;PMS7003;17465;47.934;33.430;2022-10-16T03:36:16;39.25;31.50;16.50
30713;PMS7003;17465;47.934;33.430;2022-10-16T03:38:46;45.50;39.25;21.50
30713;PMS7003;17465;47.934;33.430;2022-10-16T03:41:17;48.25;43.00;26.25
30713;PMS7003;17465;47.934;33.430;2022-10-16T03:43:47;38.00;35.50;20.25
30713;PMS7003;17465;47.934;33.430;2022-10-16T03:46:18;47.50;41.75;24.75
30713;PMS7003;17465;47.934;33.430;2022-10-16T03:48:48;38.50;37.00;22.00
30713;PMS7003;17465;47.934;33.430;2022-10-16T03:51:19;41.00;39.25;26.00
30713;PMS7003;17465;47.934;33.430;2022-10-16T03:53:49;42.75;40.25;25.75
30713;PMS7003;17465;47.934;33.430;2022-10-16T03:56:19;42.00;38.00;21.50
30713;PMS7003;17465;47.934;33.430;2022-10-16T03:58:49;44.75;40.50;26.75
30713;PMS7003;17465;47.934;33.430;2022-10-16T04:01:20;40.00;38.75;25.50
30713;PMS7003;17465;47.934;33.430;2022-10-16T04:03:51;53.25;45.50;25.50
30713;PMS7003;17465;47.934;33.430;2022-10-16T04:06:22;44.00;39.75;26.00
30713;PMS7003;17465;47.934;33.430;2022-10-16T04:08:53;57.75;45.25;29.25
30713;PMS7003;17465;47.934;33.430;2022-10-16T04:11:23;50.25;41.75;24.00
30713;PMS7003;17465;47.934;33.430;2022-10-16T04:13:55;52.75;44.00;26.50
30713;PMS7003;17465;47.934;33.430;2022-10-16T04:16:27;49.50;41.75;25.75
30713;PMS7003;17465;47.934;33.430;2022-10-16T04:18:57;50.25;42.75;26.75
30713;PMS7003;17465;47.934;33.430;2022-10-16T04:21:28;50.75;43.00;26.50
30713;PMS7003;17465;47.934;33.430;2022-10-16T04:23:59;56.50;45.50;28.75
30713;PMS7003;17465;47.934;33.430;2022-10-16T04:26:30;53.50;42.75;26.25
30713;PMS7003;17465;47.934;33.430;2022-10-16T04:29:00;49.50;42.00;24.25
30713;PMS7003;17465;47.934;33.430;2022-10-16T04:31:31;47.00;42.00;27.00
30713;PMS7003;17465;47.934;33.430;2022-10-16T04:34:02;56.00;42.75;26.00
30713;PMS7003;17465;47.934;33.430;2022-10-16T04:36:33;49.25;42.75;28.00
30713;PMS7003;17465;47.934;33.430;2022-10-16T04:39:03;40.50;39.50;28.25
30713;PMS7003;17465;47.934;33.430;2022-10-16T04:41:34;51.75;44.00;26.75
30713;PMS7003;17465;47.934;33.430;2022-10-16T04:44:05;56.00;46.00;27.00
30713;PMS7003;17465;47.934;33.430;2022-10-16T04:46:35;58.00;45.00;28.25
30713;PMS7003;17465;47.934;33.430;2022-10-16T04:49:06;50.50;42.25;29.75
30713;PMS7003;17465;47.934;33.430;2022-10-16T04:51:37;53.00;42.25;28.25
30713;PMS7003;17465;47.934;33.430;2022-10-16T04:54:08;58.75;48.50;26.25
30713;PMS7003;17465;47.934;33.430;2022-10-16T04:56:38;54.75;47.25;27.50
30713;PMS7003;17465;47.934;33.430;2022-10-16T04:59:09;58.25;46.50;29.00
30713;PMS7003;17465;47.934;33.430;2022-10-16T05:01:39;50.25;42.25;27.75
30713;PMS7003;17465;47.934;33.430;2022-10-16T05:04:11;55.50;44.75;27.25
30713;PMS7003;17465;47.934;33.430;2022-10-16T05:06:42;50.50;43.25;28.00
30713;PMS7003;17465;47.934;33.430;2022-10-16T05:09:13;57.75;48.00;29.25
30713;PMS7003;17465;47.934;33.430;2022-10-16T05:11:44;62.25;45.75;29.25
30713;PMS7003;17465;47.934;33.430;2022-10-16T05:14:14;53.00;42.50;27.50
30713;PMS7003;17465;47.934;33.430;2022-10-16T05:16:45;48.50;41.25;28.25
30713;PMS7003;17465;47.934;33.430;2022-10-16T05:19:16;59.50;49.50;29.00
30713;PMS7003;17465;47.934;33.430;2022-10-16T05:21:48;51.25;45.00;28.00
30713;PMS7003;17465;47.934;33.430;2022-10-16T05:24:19;48.50;43.00;26.25
30713;PMS7003;17465;47.934;33.430;2022-10-16T05:26:49;57.00;46.25;29.25
30713;PMS7003;17465;47.934;33.430;2022-10-16T05:29:20;42.50;39.75;28.25
30713;PMS7003;17465;47.934;33.430;2022-10-16T05:31:51;49.75;42.00;25.50
30713;PMS7003;17465;47.934;33.430;2022-10-16T05:34:22;55.50;46.50;27.75
30713;PMS7003;17465;47.934;33.430;2022-10-16T05:36:53;66.00;55.00;40.00
30713;PMS7003;17465;47.934;33.430;2022-10-16T05:39:24;61.50;52.50;36.00
30713;PMS7003;17465;47.934;33.430;2022-10-16T05:41:54;74.25;59.50;43.50
30713;PMS7003;17465;47.934;33.430;2022-10-16T05:44:26;69.50;54.75;37.25
30713;PMS7003;17465;47.934;33.430;2022-10-16T05:46:57;82.00;63.50;44.00
30713;PMS7003;17465;47.934;33.430;2022-10-16T05:49:28;78.75;63.25;45.00
30713;PMS7003;17465;47.934;33.430;2022-10-16T05:51:58;62.00;49.75;30.50
30713;PMS7003;17465;47.934;33.430;2022-10-16T05:54:29;74.75;58.25;42.75
30713;PMS7003;17465;47.934;33.430;2022-10-16T05:56:59;69.25;55.75;35.75
30713;PMS7003;17465;47.934;33.430;2022-10-16T05:59:29;82.50;65.25;46.00
30713;PMS7003;17465;47.934;33.430;2022-10-16T06:02:14;50.75;41.25;19.25
30713;PMS7003;17465;47.934;33.430;2022-10-16T06:04:45;65.75;53.25;30.50
30713;PMS7003;17465;47.934;33.430;2022-10-16T06:07:16;45.00;38.50;23.00
30713;PMS7003;17465;47.934;33.430;2022-10-16T06:09:50;61.25;44.50;26.50
30713;PMS7003;17465;47.934;33.430;2022-10-16T06:12:22;41.25;36.50;19.00
30713;PMS7003;17465;47.934;33.430;2022-10-16T06:14:52;39.25;36.50;22.00
30713;PMS7003;17465;47.934;33.430;2022-10-16T06:17:24;51.00;42.75;27.25
30713;PMS7003;17465;47.934;33.430;2022-10-16T06:19:55;53.75;44.00;27.25
30713;PMS7003;17465;47.934;33.430;2022-10-16T06:22:26;54.25;44.25;27.00
30713;PMS7003;17465;47.934;33.430;2022-10-16T06:24:56;51.75;44.25;27.00
30713;PMS7003;17465;47.934;33.430;2022-10-16T06:27:26;57.25;47.25;28.75
30713;PMS7003;17465;47.934;33.430;2022-10-16T06:29:58;45.50;38.75;25.75
30713;PMS7003;17465;47.934;33.430;2022-10-16T06:32:28;43.50;38.50;24.50
30713;PMS7003;17465;47.934;33.430;2022-10-16T06:34:59;44.25;39.00;23.50
30713;PMS7003;17465;47.934;33.430;2022-10-16T06:37:30;43.50;38.00;24.75
30713;PMS7003;17465;47.934;33.430;2022-10-16T06:40:01;39.25;32.50;20.75
30713;PMS7003;17465;47.934;33.430;2022-10-16T06:42:31;42.25;35.00;24.25
30713;PMS7003;17465;47.934;33.430;2022-10-16T06:45:02;45.25;37.75;23.25
30713;PMS7003;17465;47.934;33.430;2022-10-16T06:47:34;48.25;40.75;25.50
30713;PMS7003;17465;47.934;33.430;2022-10-16T06:50:05;43.50;37.75;23.00
30713;PMS7003;17465;47.934;33.430;2022-10-16T06:52:36;43.25;37.50;24.75
30713;PMS7003;17465;47.934;33.430;2022-10-16T06:55:06;45.50;38.75;25.00
30713;PMS7003;17465;47.934;33.430;2022-10-16T06:57:37;42.00;37.25;24.00
30713;PMS7003;17465;47.934;33.430;2022-10-16T07:00:10;47.25;38.75;24.25
30713;PMS7003;17465;47.934;33.430;2022-10-16T07:02:41;48.50;39.50;25.75
30713;PMS7003;17465;47.934;33.430;2022-10-16T07:05:12;46.75;38.00;24.00
30713;PMS7003;17465;47.934;33.430;2022-10-16T07:07:42;41.25;36.25;22.75
30713;PMS7003;17465;47.934;33.430;2022-10-16T07:10:14;48.50;39.25;25.00
30713;PMS7003;17465;47.934;33.430;2022-10-16T07:12:45;43.75;37.00;24.00
30713;PMS7003;17465;47.934;33.430;2022-10-16T07:15:16;47.00;40.75;24.25
30713;PMS7003;17465;47.934;33.430;2022-10-16T07:17:57;45.25;38.00;24.25
30713;PMS7003;17465;47.934;33.430;2022-10-16T07:20:30;44.00;38.00;23.50
30713;PMS7003;17465;47.934;33.430;2022-10-16T07:23:00;34.25;31.00;21.00
30713;PMS7003;17465;47.934;33.430;2022-10-16T07:25:30;32.25;31.25;19.25
30713;PMS7003;17465;47.934;33.430;2022-10-16T07:28:01;32.50;29.50;19.50
30713;PMS7003;17465;47.934;33.430;2022-10-16T07:30:34;35.75;31.50;20.50
30713;PMS7003;17465;47.934;33.430;2022-10-16T07:33:04;32.00;28.25;18.25
30713;PMS7003;17465;47.934;33.430;2022-10-16T07:35:37;29.00;26.75;17.75
30713;PMS7003;17465;47.934;33.430;2022-10-16T07:38:10;30.75;28.50;20.00
30713;PMS7003;17465;47.934;33.430;2022-10-16T07:40:41;28.50;27.00;17.00
30713;PMS7003;17465;47.934;33.430;2022-10-16T07:43:12;30.75;29.75;18.50
30713;PMS7003;17465;47.934;33.430;2022-10-16T07:45:52;30.75;30.75;17.25
30713;PMS7003;17465;47.934;33.430;2022-10-16T07:48:20;27.00;27.00;15.25
30713;PMS7003;17465;47.934;33.430;2022-10-16T07:50:51;26.40;23.80;16.00
30713;PMS7003;17465;47.934;33.430;2022-10-16T07:53:22;25.40;23.60;13.80
30713;PMS7003;17465;47.934;33.430;2022-10-16T07:56:01;23.00;21.60;13.40
30713;PMS7003;17465;47.934;33.430;2022-10-16T07:58:35;22.20;21.20;13.40
30713;PMS7003;17465;47.934;33.430;2022-10-16T08:01:10;12.80;12.80;5.20
30713;PMS7003;17465;47.934;33.430;2022-10-16T08:03:44;20.60;20.60;11.80
30713;PMS7003;17465;47.934;33.430;2022-10-16T08:06:20;16.40;15.60;10.20
30713;PMS7003;17465;47.934;33.430;2022-10-16T08:08:54;19.60;19.60;12.00
30713;PMS7003;17465;47.934;33.430;2022-10-16T08:11:25;21.80;17.80;11.20
30713;PMS7003;17465;47.934;33.430;2022-10-16T08:13:57;15.60;14.80;11.20
30713;PMS7003;17465;47.934;33.430;2022-10-16T08:16:27;16.20;15.20;8.80
30713;PMS7003;17465;47.934;33.430;2022-10-16T08:18:58;15.60;13.60;9.00
30713;PMS7003;17465;47.934;33.430;2022-10-16T08:21:28;14.00;14.00;9.80
30713;PMS7003;17465;47.934;33.430;2022-10-16T08:23:59;13.80;13.80;7.20
30713;PMS7003;17465;47.934;33.430;2022-10-16T08:26:32;21.60;19.60;13.20
30713;PMS7003;17465;47.934;33.430;2022-10-16T08:29:02;15.60;15.60;10.60
30713;PMS7003;17465;47.934;33.430;2022-10-16T08:31:33;13.20;13.00;10.80
30713;PMS7003;17465;47.934;33.430;2022-10-16T08:34:04;9.80;8.20;3.80
30713;PMS7003;17465;47.934;33.430;2022-10-16T08:36:35;12.00;12.00;7.80
30713;PMS7003;17465;47.934;33.430;2022-10-16T08:39:07;9.00;8.00;4.80
30713;PMS7003;17465;47.934;33.430;2022-10-16T08:50:25;12.00;10.60;8.60
30713;PMS7003;17465;47.934;33.430;2022-10-16T08:52:57;7.20;6.80;4.40
30713;PMS7003;17465;47.934;33.430;2022-10-16T08:58:13;9.40;7.60;5.40
30713;PMS7003;17465;47.934;33.430;2022-10-16T09:00:50;9.00;8.40;4.80
30713;PMS7003;17465;47.934;33.430;2022-10-16T09:04:17;8.40;6.20;3.60
30713;PMS7003;17465;47.934;33.430;2022-10-16T09:06:16;10.20;10.00;7.20
30713;PMS7003;17465;47.934;33.430;2022-10-16T09:08:51;8.60;7.40;3.80
30713;PMS7003;17465;47.934;33.430;2022-10-16T09:11:31;4.00;3.40;3.20
30713;PMS7003;17465;47.934;33.430;2022-10-16T09:14:12;6.00;6.00;4.20
30713;PMS7003;17465;47.934;33.430;2022-10-16T09:16:59;8.40;6.60;3.40
30713;PMS7003;17465;47.934;33.430;2022-10-16T09:19:37;6.40;5.60;4.00
30713;PMS7003;17465;47.934;33.430;2022-10-16T09:22:27;10.00;9.80;6.40
30713;PMS7003;17465;47.934;33.430;2022-10-16T09:24:44;9.80;9.80;5.60
30713;PMS7003;17465;47.934;33.430;2022-10-16T09:27:15;11.40;11.40;7.60
30713;PMS7003;17465;47.934;33.430;2022-10-16T09:29:45;10.60;10.40;7.00
30713;PMS7003;17465;47.934;33.430;2022-10-16T09:32:18;9.40;8.80;5.00
30713;PMS7003;17465;47.934;33.430;2022-10-16T09:34:52;10.00;8.00;5.00
30713;PMS7003;17465;47.934;33.430;2022-10-16T09:37:30;7.80;6.60;4.40
30713;PMS7003;17465;47.934;33.430;2022-10-16T09:40:02;7.80;7.80;5.00
30713;PMS7003;17465;47.934;33.430;2022-10-16T09:42:36;7.80;7.80;4.80
30713;PMS7003;17465;47.934;33.430;2022-10-16T09:45:19;5.40;5.40;3.20
30713;PMS7003;17465;47.934;33.430;2022-10-16T09:47:44;6.80;6.80;4.80
30713;PMS7003;17465;47.934;33.430;2022-10-16T09:50:25;10.25;7.50;5.00
30713;PMS7003;17465;47.934;33.430;2022-10-16T09:53:04;7.00;6.00;3.00
30713;PMS7003;17465;47.934;33.430;2022-10-16T09:55:47;7.25;7.25;4.00
30713;PMS7003;17465;47.934;33.430;2022-10-16T09:58:22;6.00;6.00;5.00
30713;PMS7003;17465;47.934;33.430;2022-10-16T10:00:53;7.00;6.25;4.00
30713;PMS7003;17465;47.934;33.430;2022-10-16T10:03:32;6.00;5.75;4.25
30713;PMS7003;17465;47.934;33.430;2022-10-16T10:06:49;9.00;7.25;4.00
30713;PMS7003;17465;47.934;33.430;2022-10-16T10:11:41;7.75;7.75;5.00
30713;PMS7003;17465;47.934;33.430;2022-10-16T10:14:15;91.25;87.25;52.75
30713;PMS7003;17465;47.934;33.430;2022-10-16T10:16:42;71.25;58.00;36.00
30713;PMS7003;17465;47.934;33.430;2022-10-16T10:19:17;7.75;7.75;4.75
30713;PMS7003;17465;47.934;33.430;2022-10-16T10:21:58;93.50;88.75;50.25
30713;PMS7003;17465;47.934;33.430;2022-10-16T10:24:28;46.00;39.00;25.00
30713;PMS7003;17465;47.934;33.430;2022-10-16T10:27:13;6.00;6.00;3.00
30713;PMS7003;17465;47.934;33.430;2022-10-16T10:29:52;21.00;19.75;13.25
30713;PMS7003;17465;47.934;33.430;2022-10-16T10:40:44;10.80;10.80;6.00
30713;PMS7003;17465;47.934;33.430;2022-10-16T10:43:27;8.80;8.80;5.60
30713;PMS7003;17465;47.934;33.430;2022-10-16T10:46:04;10.40;9.60;6.80
30713;PMS7003;17465;47.934;33.430;2022-10-16T10:48:47;9.00;8.00;5.40
30713;PMS7003;17465;47.934;33.430;2022-10-16T10:51:47;9.25;9.25;7.00
30713;PMS7003;17465;47.934;33.430;2022-10-16T11:03:26;9.60;9.60;5.80
30713;PMS7003;17465;47.934;33.430;2022-10-16T11:06:05;4.60;4.60;2.20
30713;PMS7003;17465;47.934;33.430;2022-10-16T11:11:27;6.00;6.00;3.00
30713;PMS7003;17465;47.934;33.430;2022-10-16T11:14:00;9.60;9.60;5.80
30713;PMS7003;17465;47.934;33.430;2022-10-16T11:16:52;7.60;7.60;4.60
30713;PMS7003;17465;47.934;33.430;2022-10-16T11:22:20;8.00;5.80;3.20
30713;PMS7003;17465;47.934;33.430;2022-10-16T11:25:13;4.00;4.00;3.00
30713;PMS7003;17465;47.934;33.430;2022-10-16T11:28:50;6.40;6.40;3.80
30713;PMS7003;17465;47.934;33.430;2022-10-16T11:30:44;6.20;6.20;4.20
30713;PMS7003;17465;47.934;33.430;2022-10-16T11:36:16;5.40;5.00;2.80
30713;PMS7003;17465;47.934;33.430;2022-10-16T11:41:35;4.20;4.20;3.00
30713;PMS7003;17465;47.934;33.430;2022-10-16T11:47:09;5.40;5.40;3.20
30713;PMS7003;17465;47.934;33.430;2022-10-16T11:49:47;5.80;5.80;4.40
30713;PMS7003;17465;47.934;33.430;2022-10-16T11:52:24;4.60;4.20;3.80
30713;PMS7003;17465;47.934;33.430;2022-10-16T11:55:01;5.20;5.20;4.00
30713;PMS7003;17465;47.934;33.430;2022-10-16T11:57:51;6.25;6.25;4.00
30713;PMS7003;17465;47.934;33.430;2022-10-16T12:00:31;6.20;5.60;3.80
30713;PMS7003;17465;47.934;33.430;2022-10-16T12:08:37;6.00;6.00;3.00
30713;PMS7003;17465;47.934;33.430;2022-10-16T12:11:20;7.60;6.00;3.40
30713;PMS7003;17465;47.934;33.430;2022-10-16T12:13:48;8.20;7.20;4.40
30713;PMS7003;17465;47.934;33.430;2022-10-16T12:16:20;8.20;8.00;4.60
30713;PMS7003;17465;47.934;33.430;2022-10-16T12:19:02;8.40;8.40;4.80
30713;PMS7003;17465;47.934;33.430;2022-10-16T12:21:44;5.00;5.00;3.00
30713;PMS7003;17465;47.934;33.430;2022-10-16T12:24:33;8.80;6.20;2.80
30713;PMS7003;17465;47.934;33.430;2022-10-16T12:30:20;6.80;5.00;3.00
30713;PMS7003;17465;47.934;33.430;2022-10-16T12:32:53;7.80;7.80;4.40
30713;PMS7003;17465;47.934;33.430;2022-10-16T12:35:32;7.40;7.40;4.00
30713;PMS7003;17465;47.934;33.430;2022-10-16T12:38:26;9.00;7.00;5.00
30713;PMS7003;17465;47.934;33.430;2022-10-16T12:41:00;7.40;7.40;4.80
30713;PMS7003;17465;47.934;33.430;2022-10-16T12:48:51;6.00;6.00;4.40
30713;PMS7003;17465;47.934;33.430;2022-10-16T12:54:17;4.00;4.00;2.00
30713;PMS7003;17465;47.934;33.430;2022-10-16T12:56:55;10.20;8.80;7.00
30713;PMS7003;17465;47.934;33.430;2022-10-16T12:59:55;6.20;5.80;4.40
30713;PMS7003;17465;47.934;33.430;2022-10-16T13:22:22;8.00;8.00;5.25
30713;PMS7003;17465;47.934;33.430;2022-10-16T13:24:57;8.75;7.75;4.75
30713;PMS7003;17465;47.934;33.430;2022-10-16T13:27:56;10.50;10.00;5.50
30713;PMS7003;17465;47.934;33.430;2022-10-16T13:30:34;8.00;7.00;4.50
30713;PMS7003;17465;47.934;33.430;2022-10-16T13:33:32;6.00;6.00;3.00
30713;PMS7003;17465;47.934;33.430;2022-10-16T13:35:55;7.75;7.75;5.25
30713;PMS7003;17465;47.934;33.430;2022-10-16T13:38:29;5.75;5.75;4.00
30713;PMS7003;17465;47.934;33.430;2022-10-16T13:41:05;8.50;8.25;4.50
30713;PMS7003;17465;47.934;33.430;2022-10-16T13:43:45;10.25;10.25;7.00
30713;PMS7003;17465;47.934;33.430;2022-10-16T13:46:22;3.75;3.75;1.00
30713;PMS7003;17465;47.934;33.430;2022-10-16T13:48:57;9.25;9.25;6.25
30713;PMS7003;17465;47.934;33.430;2022-10-16T13:51:36;15.00;15.00;8.25
30713;PMS7003;17465;47.934;33.430;2022-10-16T13:54:13;14.50;14.50;9.50
30713;PMS7003;17465;47.934;33.430;2022-10-16T13:56:39;9.50;9.50;6.75
30713;PMS7003;17465;47.934;33.430;2022-10-16T13:59:23;17.50;17.25;9.50
30713;PMS7003;17465;47.934;33.430;2022-10-16T14:01:55;18.75;18.75;10.50
30713;PMS7003;17465;47.934;33.430;2022-10-16T14:04:29;23.75;21.75;11.25
30713;PMS7003;17465;47.934;33.430;2022-10-16T14:07:01;20.00;20.00;12.00
30713;PMS7003;17465;47.934;33.430;2022-10-16T14:09:32;27.75;24.00;15.00
30713;PMS7003;17465;47.934;33.430;2022-10-16T14:12:07;25.75;24.75;15.75
30713;PMS7003;17465;47.934;33.430;2022-10-16T14:14:45;33.75;28.25;17.25
30713;PMS7003;17465;47.934;33.430;2022-10-16T14:17:34;30.75;29.50;19.25
30713;PMS7003;17465;47.934;33.430;2022-10-16T14:20:06;38.50;33.00;19.00
30713;PMS7003;17465;47.934;33.430;2022-10-16T14:22:40;26.50;24.75;14.50
30713;PMS7003;17465;47.934;33.430;2022-10-16T14:28:00;26.25;24.75;15.25
30713;PMS7003;17465;47.934;33.430;2022-10-16T14:30:34;21.25;20.00;12.75
30713;PMS7003;17465;47.934;33.430;2022-10-16T14:33:05;18.00;15.25;7.75
30713;PMS7003;17465;47.934;33.430;2022-10-16T14:35:39;14.75;14.75;8.50
30713;PMS7003;17465;47.934;33.430;2022-10-16T14:38:20;13.50;12.25;9.00
30713;PMS7003;17465;47.934;33.430;2022-10-16T14:40:51;12.75;10.00;7.25
30713;PMS7003;17465;47.934;33.430;2022-10-16T14:43:33;15.75;13.25;8.75
30713;PMS7003;17465;47.934;33.430;2022-10-16T14:45:57;12.00;11.00;7.25
30713;PMS7003;17465;47.934;33.430;2022-10-16T14:48:27;15.00;13.00;9.00
30713;PMS7003;17465;47.934;33.430;2022-10-16T14:50:59;25.50;24.00;15.50
30713;PMS7003;17465;47.934;33.430;2022-10-16T14:53:29;30.25;25.00;15.50
30713;PMS7003;17465;47.934;33.430;2022-10-16T14:56:05;37.00;35.00;22.75
30713;PMS7003;17465;47.934;33.430;2022-10-16T14:58:37;46.00;37.25;25.00
30713;PMS7003;17465;47.934;33.430;2022-10-16T15:01:09;46.50;36.50;24.00
30713;PMS7003;17465;47.934;33.430;2022-10-16T15:03:40;43.50;36.00;22.50
30713;PMS7003;17465;47.934;33.430;2022-10-16T15:06:11;32.50;32.25;21.00
30713;PMS7003;17465;47.934;33.430;2022-10-16T15:08:44;31.50;28.75;15.50
30713;PMS7003;17465;47.934;33.430;2022-10-16T15:11:19;18.50;16.25;8.75
30713;PMS7003;17465;47.934;33.430;2022-10-16T15:13:47;22.25;22.25;14.50
30713;PMS7003;17465;47.934;33.430;2022-10-16T15:16:18;21.50;20.00;11.75
30713;PMS7003;17465;47.934;33.430;2022-10-16T15:18:48;21.00;19.50;11.00
30713;PMS7003;17465;47.934;33.430;2022-10-16T15:21:30;25.25;23.25;13.50
30713;PMS7003;17465;47.934;33.430;2022-10-16T15:23:59;34.50;31.25;20.00
30713;PMS7003;17465;47.934;33.430;2022-10-16T15:26:31;32.75;30.00;18.75
30713;PMS7003;17465;47.934;33.430;2022-10-16T15:29:01;28.75;26.00;16.50
30713;PMS7003;17465;47.934;33.430;2022-10-16T15:31:32;33.50;29.50;18.00
30713;PMS7003;17465;47.934;33.430;2022-10-16T15:34:03;26.00;24.50;16.00
30713;PMS7003;17465;47.934;33.430;2022-10-16T15:36:35;31.25;27.50;18.25
30713;PMS7003;17465;47.934;33.430;2022-10-16T15:39:12;29.75;24.00;17.00
30713;PMS7003;17465;47.934;33.430;2022-10-16T15:41:44;34.50;29.75;18.50
30713;PMS7003;17465;47.934;33.430;2022-10-16T15:44:21;49.25;42.25;26.50
30713;PMS7003;17465;47.934;33.430;2022-10-16T15:46:48;51.00;42.50;28.00
30713;PMS7003;17465;47.934;33.430;2022-10-16T15:49:18;62.25;51.00;32.00
30713;PMS7003;17465;47.934;33.430;2022-10-16T15:51:50;65.25;53.25;33.75
30713;PMS7003;17465;47.934;33.430;2022-10-16T15:54:20;61.00;49.00;31.00
30713;PMS7003;17465;47.934;33.430;2022-10-16T15:56:52;55.75;45.75;28.00
30713;PMS7003;17465;47.934;33.430;2022-10-16T15:59:22;52.25;42.25;26.00
30713;PMS7003;17465;47.934;33.430;2022-10-16T16:01:53;45.50;36.50;24.00
30713;PMS7003;17465;47.934;33.430;2022-10-16T16:04:23;39.25;35.00;22.00